createdAt,value
2017-03-29T00:03:10.610Z,17.02
2017-03-29T00:07:10.510Z,16.89
2017-03-29T00:11:09.837Z,16.95
2017-03-29T00:15:09.658Z,16.73
2017-03-29T00:19:10.269Z,16.59
2017-03-29T00:23:20.057Z,16.66
2017-03-29T00:25:37.341Z,16.62
2017-03-29T00:29:37.118Z,16.79
2017-03-29T00:33:36.884Z,16.47
2017-03-29T00:37:36.707Z,16.47
2017-03-29T00:40:08.082Z,16.39
2017-03-29T00:43:59.430Z,16.39
2017-03-29T00:46:38.854Z,16.32
2017-03-29T00:50:38.209Z,16.44
2017-03-29T00:54:37.998Z,16
2017-03-29T00:57:08.424Z,16.16
2017-03-29T01:01:12.682Z,16.32
2017-03-29T01:05:21.428Z,16.39
2017-03-29T01:09:20.852Z,16.34
2017-03-29T01:13:20.607Z,16.24
2017-03-29T01:15:21.829Z,16.28
2017-03-29T01:17:40.458Z,16.1
2017-03-29T01:20:12.937Z,16.08
2017-03-29T01:22:43.359Z,16.13
2017-03-29T01:25:07.029Z,16.08
2017-03-29T01:27:31.619Z,16.05
2017-03-29T01:29:57.248Z,16.12
2017-03-29T01:33:57.005Z,15.75
2017-03-29T01:37:56.746Z,15.67
2017-03-29T01:41:56.547Z,15.69
2017-03-29T01:45:56.200Z,15.6
2017-03-29T01:49:55.967Z,15.57
2017-03-29T01:52:26.411Z,15.6
2017-03-29T01:54:51.989Z,15.51
2017-03-29T02:00:27.820Z,15.3
2017-03-29T02:04:27.566Z,15.35
2017-03-29T02:08:27.243Z,15.26
2017-03-29T02:12:27.083Z,15.18
2017-03-29T02:14:20.276Z,15.39
2017-03-29T02:19:47.734Z,15.26
2017-03-29T02:23:47.449Z,15.19
2017-03-29T02:27:38.743Z,15.17
2017-03-29T02:30:02.368Z,15.17
2017-03-29T02:34:02.052Z,15
2017-03-29T02:36:42.471Z,14.99
2017-03-29T02:39:06.022Z,15
2017-03-29T02:43:05.727Z,15.1
2017-03-29T02:45:30.340Z,15.02
2017-03-29T02:47:06.573Z,14.97
2017-03-29T02:49:31.280Z,14.89
2017-03-29T02:53:35.249Z,15.07
2017-03-29T02:55:58.895Z,15.02
2017-03-29T02:58:31.284Z,14.9
2017-03-29T03:00:55.891Z,14.89
2017-03-29T03:02:57.539Z,14.79
2017-03-29T03:06:57.212Z,14.77
2017-03-29T03:10:56.922Z,14.7
2017-03-29T03:13:28.325Z,14.53
2017-03-29T03:15:53.862Z,14.55
2017-03-29T03:18:17.407Z,14.48
2017-03-29T03:20:57.876Z,14.45
2017-03-29T03:23:15.085Z,14.44
2017-03-29T03:25:40.558Z,14.48
2017-03-29T03:28:06.064Z,14.58
2017-03-29T03:30:29.775Z,14.48
2017-03-29T03:33:07.849Z,14.44
2017-03-29T03:35:47.530Z,14.45
2017-03-29T03:38:10.934Z,14.44
2017-03-29T03:40:35.442Z,14.48
2017-03-29T03:43:01.153Z,14.68
2017-03-29T03:45:02.204Z,14.79
2017-03-29T03:47:41.524Z,14.71
2017-03-29T03:51:43.214Z,14.77
2017-03-29T03:54:06.759Z,14.71
2017-03-29T03:56:45.079Z,14.92
2017-03-29T03:59:24.626Z,14.89
2017-03-29T04:01:49.228Z,14.67
2017-03-29T04:04:12.791Z,14.61
2017-03-29T04:06:37.305Z,14.51
2017-03-29T04:09:15.601Z,14.62
2017-03-29T04:11:56.065Z,14.74
2017-03-29T04:14:28.548Z,14.82
2017-03-29T04:16:53.078Z,14.68
2017-03-29T04:19:16.495Z,14.59
2017-03-29T04:21:40.141Z,14.55
2017-03-29T04:25:39.651Z,14.73
2017-03-29T04:29:39.225Z,14.71
2017-03-29T04:32:10.677Z,14.52
2017-03-29T04:34:12.365Z,14.44
2017-03-29T04:36:36.925Z,14.41
2017-03-29T04:39:07.253Z,14.45
2017-03-29T04:41:37.272Z,14.45
2017-03-29T04:46:39.629Z,14.18
2017-03-29T04:49:09.295Z,14.19
2017-03-29T04:51:34.797Z,14.26
2017-03-29T04:55:34.438Z,14.3
2017-03-29T04:59:34.021Z,14.49
2017-03-29T05:01:58.538Z,14.31
2017-03-29T05:04:36.430Z,14.44
2017-03-29T05:07:01.877Z,14.4
2017-03-29T05:11:01.484Z,14.58
2017-03-29T05:13:31.867Z,14.61
2017-03-29T05:15:46.958Z,14.74
2017-03-29T05:17:56.641Z,14.94
2017-03-29T05:20:21.230Z,14.94
2017-03-29T05:22:44.698Z,15
2017-03-29T05:25:16.499Z,15.07
2017-03-29T05:29:16.197Z,15.05
2017-03-29T05:33:07.395Z,15.32
2017-03-29T05:37:07.505Z,15.43
2017-03-29T05:42:34.931Z,16.66
2017-03-29T05:45:00.559Z,17.73
2017-03-29T05:47:38.808Z,18.78
2017-03-29T05:50:09.287Z,20.12
2017-03-29T05:54:09.209Z,22.93
2017-03-29T05:56:33.321Z,24.38
2017-03-29T05:58:57.150Z,25.24
2017-03-29T06:01:22.370Z,26.45
2017-03-29T06:05:22.767Z,27.29
2017-03-29T06:08:03.057Z,28.38
2017-03-29T06:10:42.084Z,29.44
2017-03-29T06:13:05.067Z,31.22
2017-03-29T06:16:57.380Z,32.26
2017-03-29T06:20:58.295Z,31
2017-03-29T06:24:58.768Z,30.11
2017-03-29T06:32:12.204Z,26.83
2017-03-29T06:36:12.976Z,24.47
2017-03-29T06:38:43.753Z,23.69
2017-03-29T06:42:43.884Z,23.07
2017-03-29T06:45:17.200Z,22.76
2017-03-29T06:49:17.232Z,24.09
2017-03-29T06:51:43.555Z,24.24
2017-03-29T06:55:35.683Z,24.41
2017-03-29T06:59:36.630Z,29.86
2017-03-29T07:01:47.704Z,32.3
2017-03-29T07:05:48.710Z,34.59
2017-03-29T07:09:49.933Z,37.64
2017-03-29T07:12:30.628Z,38.34
2017-03-29T07:14:56.928Z,39.11
2017-03-29T07:17:29.765Z,40.29
2017-03-29T07:19:14.816Z,41.03
2017-03-29T07:21:40.638Z,40.52
2017-03-29T07:24:08.549Z,42.07
2017-03-29T07:26:36.415Z,42.14
2017-03-29T07:28:38.756Z,43.51
2017-03-29T07:30:41.139Z,44.29
2017-03-29T07:33:13.803Z,44.83
2017-03-29T07:35:48.815Z,44.4
2017-03-29T07:38:22.825Z,44.41
2017-03-29T07:41:04.869Z,45.17
2017-03-29T07:43:37.922Z,46.85
2017-03-29T07:46:04.341Z,45.92
2017-03-29T07:48:32.965Z,45.18
2017-03-29T07:52:38.833Z,46.47
2017-03-29T07:55:10.527Z,41.86
2017-03-29T07:57:43.996Z,40.04
2017-03-29T08:00:10.619Z,37.64
2017-03-29T08:02:45.011Z,34.66
2017-03-29T08:05:19.481Z,33.84
2017-03-29T08:07:47.006Z,31.1
2017-03-29T08:10:20.014Z,30.36
2017-03-29T08:11:56.453Z,31.28
2017-03-29T08:14:22.649Z,32.6
2017-03-29T08:16:48.606Z,32.66
2017-03-29T08:19:14.310Z,32.11
2017-03-29T08:21:41.909Z,31.25
2017-03-29T08:24:08.335Z,30.44
2017-03-29T08:26:33.595Z,28.59
2017-03-29T08:28:58.769Z,30.1
2017-03-29T08:31:23.848Z,29.53
2017-03-29T08:33:50.882Z,29.59
2017-03-29T08:36:15.944Z,29.27
2017-03-29T08:38:41.842Z,28.59
2017-03-29T08:41:06.797Z,27.13
2017-03-29T08:43:32.620Z,26.97
2017-03-29T08:45:57.443Z,26.93
2017-03-29T08:48:23.328Z,26.85
2017-03-29T08:50:48.982Z,27.4
2017-03-29T08:52:25.306Z,28.23
2017-03-29T08:54:51.055Z,28.7
2017-03-29T08:57:15.773Z,27.78
2017-03-29T08:59:40.471Z,27.76
2017-03-29T09:02:05.264Z,28.01
2017-03-29T09:04:30.010Z,27.75
2017-03-29T09:06:54.862Z,27.2
2017-03-29T09:09:20.878Z,26.53
2017-03-29T09:13:21.916Z,26.56
2017-03-29T09:15:15.825Z,27.38
2017-03-29T09:17:26.414Z,26.46
2017-03-29T09:19:28.476Z,27.28
2017-03-29T09:22:01.804Z,25.8
2017-03-29T09:25:55.315Z,26.56
2017-03-29T09:27:32.317Z,25.33
2017-03-29T09:29:34.334Z,25.36
2017-03-29T09:36:47.580Z,25.88
2017-03-29T09:39:14.175Z,25.98
2017-03-29T09:41:39.686Z,26.24
2017-03-29T09:45:40.487Z,25.78
2017-03-29T09:48:11.783Z,25.68
2017-03-29T09:52:12.506Z,26.55
2017-03-29T09:54:44.766Z,25.77
2017-03-29T09:57:23.751Z,25.15
2017-03-29T10:01:26.588Z,25.85
2017-03-29T10:03:52.093Z,25.66
2017-03-29T10:06:18.563Z,26.29
2017-03-29T10:08:43.060Z,26.53
2017-03-29T10:11:07.530Z,26.49
2017-03-29T10:13:48.840Z,26.52
2017-03-29T10:16:29.358Z,25.74
2017-03-29T10:18:55.910Z,25.33
2017-03-29T10:21:29.385Z,25.73
2017-03-29T10:23:54.954Z,25.7
2017-03-29T10:26:20.429Z,26.64
2017-03-29T10:30:21.134Z,25.66
2017-03-29T10:33:00.428Z,24.94
2017-03-29T10:37:03.145Z,25.56
2017-03-29T10:41:03.832Z,25.67
2017-03-29T10:45:04.587Z,25.67
2017-03-29T10:47:14.148Z,24.22
2017-03-29T10:49:45.361Z,24.71
2017-03-29T10:53:45.498Z,24.47
2017-03-29T10:56:10.899Z,24.01
2017-03-29T10:58:41.795Z,23.85
2017-03-29T11:02:42.409Z,24.65
2017-03-29T11:06:44.126Z,24
2017-03-29T11:08:45.919Z,24.78
2017-03-29T11:11:11.332Z,25.07
2017-03-29T11:15:11.959Z,24.19
2017-03-29T11:19:12.609Z,23.94
2017-03-29T11:23:13.250Z,24.22
2017-03-29T11:25:44.544Z,24.69
2017-03-29T11:29:45.123Z,23.71
2017-03-29T11:31:55.662Z,23.52
2017-03-29T11:34:36.965Z,23.81
2017-03-29T11:38:29.063Z,23.32
2017-03-29T11:42:29.559Z,23.32
2017-03-29T11:46:30.099Z,23.14
2017-03-29T11:50:30.573Z,23.89
2017-03-29T11:53:09.403Z,23.14
2017-03-29T11:55:33.659Z,23.44
2017-03-29T11:57:44.848Z,23.39
2017-03-29T12:01:36.801Z,23.08
2017-03-29T12:05:37.279Z,23.1
2017-03-29T12:09:37.717Z,23.2
2017-03-29T12:12:03.050Z,23.67
2017-03-29T12:14:43.055Z,23.26
2017-03-29T12:17:16.042Z,22.96
2017-03-29T12:22:52.635Z,23.55
2017-03-29T12:25:23.471Z,23.42
2017-03-29T12:29:15.485Z,23.48
2017-03-29T12:33:15.953Z,23.06
2017-03-29T12:35:40.209Z,23.48
2017-03-29T12:39:40.623Z,23.45
2017-03-29T12:42:21.435Z,23.63
2017-03-29T12:44:52.451Z,23.54
2017-03-29T12:47:23.450Z,23.39
2017-03-29T12:51:23.889Z,23.18
2017-03-29T12:53:55.671Z,23.51
2017-03-29T12:56:19.947Z,23.47
2017-03-29T12:58:52.699Z,23.66
2017-03-29T13:03:12.364Z,23.33
2017-03-29T13:07:04.494Z,23.44
2017-03-29T13:11:04.850Z,24.11
2017-03-29T13:13:20.664Z,24.09
2017-03-29T13:16:00.686Z,23.81
2017-03-29T13:20:01.133Z,23.77
2017-03-29T13:23:53.464Z,23.33
2017-03-29T13:26:17.960Z,23.71
2017-03-29T13:30:23.703Z,23.82
2017-03-29T13:32:25.554Z,24.1
2017-03-29T13:34:49.814Z,24.31
2017-03-29T13:37:06.584Z,24.18
2017-03-29T13:41:06.997Z,23.94
2017-03-29T13:43:31.274Z,23.67
2017-03-29T13:45:48.040Z,23.77
2017-03-29T13:48:12.457Z,24.11
2017-03-29T13:50:38.716Z,24.1
2017-03-29T13:53:02.828Z,23.71
2017-03-29T13:55:33.881Z,23.81
2017-03-29T13:57:59.075Z,23.32
2017-03-29T14:00:24.290Z,23.56
2017-03-29T14:02:49.527Z,23.56
2017-03-29T14:05:14.819Z,23.99
2017-03-29T14:07:46.833Z,23.92
2017-03-29T14:10:11.058Z,23.47
2017-03-29T14:12:43.856Z,23.4
2017-03-29T14:15:10.052Z,23.25
2017-03-29T14:17:34.323Z,23.88
2017-03-29T14:20:06.323Z,24.34
2017-03-29T14:22:37.384Z,23.54
2017-03-29T14:25:03.616Z,23.34
2017-03-29T14:27:44.366Z,23.63
2017-03-29T14:31:44.678Z,23.85
2017-03-29T14:34:24.486Z,23.89
2017-03-29T14:36:41.254Z,23.42
2017-03-29T14:38:56.966Z,23.32
2017-03-29T14:41:29.985Z,23.55
2017-03-29T14:45:31.346Z,23.2
2017-03-29T14:47:55.583Z,23.34
2017-03-29T14:50:19.811Z,23.59
2017-03-29T14:52:44.986Z,23.33
2017-03-29T14:56:45.445Z,23.42
2017-03-29T14:59:10.664Z,23.54
2017-03-29T15:01:49.767Z,23.91
2017-03-29T15:04:21.765Z,23.91
2017-03-29T15:06:32.269Z,23.86
2017-03-29T15:08:58.455Z,23.86
2017-03-29T15:11:22.698Z,23.62
2017-03-29T15:15:23.165Z,23.32
2017-03-29T15:19:23.685Z,24.01
2017-03-29T15:21:50.666Z,23.82
2017-03-29T15:24:16.029Z,23.33
2017-03-29T15:26:42.083Z,23.54
2017-03-29T15:29:14.061Z,23.66
2017-03-29T15:31:38.328Z,23.45
2017-03-29T15:34:04.598Z,23.2
2017-03-29T15:36:29.114Z,23.34
2017-03-29T15:38:53.355Z,23.32
2017-03-29T15:41:17.505Z,23.08
2017-03-29T15:43:43.818Z,23.29
2017-03-29T15:46:16.300Z,23.08
2017-03-29T15:48:41.654Z,23.2
2017-03-29T15:51:06.085Z,23.13
2017-03-29T15:53:38.091Z,23.13
2017-03-29T15:56:03.558Z,23.14
2017-03-29T15:58:35.766Z,23.2
2017-03-29T16:01:15.641Z,22.77
2017-03-29T16:03:40.824Z,23.18
2017-03-29T16:05:17.117Z,23.28
2017-03-29T16:07:41.329Z,23.62
2017-03-29T16:11:43.292Z,22.8
2017-03-29T16:14:08.657Z,22.89
2017-03-29T16:16:32.832Z,23.06
2017-03-29T16:19:03.560Z,22.88
2017-03-29T16:21:27.786Z,22.98
2017-03-29T16:23:52.676Z,22.55
2017-03-29T16:26:16.896Z,22.68
2017-03-29T16:28:42.278Z,22.81
2017-03-29T16:31:08.101Z,23.04
2017-03-29T16:35:09.520Z,23.17
2017-03-29T16:37:27.790Z,22.95
2017-03-29T16:39:54.719Z,22.8
2017-03-29T16:42:18.943Z,22.77
2017-03-29T16:44:43.076Z,22.52
2017-03-29T16:47:07.407Z,22.78
2017-03-29T16:49:31.511Z,22.43
2017-03-29T16:51:56.688Z,22.63
2017-03-29T16:54:29.134Z,22.44
2017-03-29T16:56:53.321Z,22.74
2017-03-29T16:59:26.771Z,22.23
2017-03-29T17:01:53.070Z,22.06
2017-03-29T17:05:55.252Z,22.15
2017-03-29T17:08:19.479Z,22.08
2017-03-29T17:10:44.636Z,22.16
2017-03-29T17:13:09.152Z,22.08
2017-03-29T17:15:33.523Z,22.16
2017-03-29T17:17:58.490Z,21.97
2017-03-29T17:20:29.647Z,22.14
2017-03-29T17:22:53.881Z,21.56
2017-03-29T17:25:18.838Z,21.6
2017-03-29T17:27:44.788Z,21.23
2017-03-29T17:30:08.702Z,21.41
2017-03-29T17:32:32.683Z,21.44
2017-03-29T17:34:36.902Z,21.75
2017-03-29T17:37:01.000Z,21.75
2017-03-29T17:39:26.227Z,21.85
2017-03-29T17:41:55.042Z,22.01
2017-03-29T17:44:19.550Z,21.92
2017-03-29T17:46:47.125Z,21.88
2017-03-29T17:49:12.749Z,22
2017-03-29T17:51:36.808Z,21.84
2017-03-29T17:54:08.319Z,21.68
2017-03-29T17:56:10.182Z,21.6
2017-03-29T17:58:35.380Z,21.63
2017-03-29T18:00:48.127Z,21.35
2017-03-29T18:03:12.836Z,21.2
2017-03-29T18:05:37.177Z,21.26
2017-03-29T18:08:01.466Z,21.35
2017-03-29T18:10:25.606Z,21.23
2017-03-29T18:12:52.134Z,21.26
2017-03-29T18:15:19.422Z,21.14
2017-03-29T18:17:43.396Z,20.86
2017-03-29T18:20:08.030Z,21
2017-03-29T18:22:33.906Z,20.77
2017-03-29T18:24:59.719Z,20.56
2017-03-29T18:27:30.397Z,20.59
2017-03-29T18:29:56.672Z,20.46
2017-03-29T18:32:26.786Z,20.52
2017-03-29T18:34:42.703Z,20.52
2017-03-29T18:37:07.410Z,20.32
2017-03-29T18:39:22.802Z,20.27
2017-03-29T18:41:48.241Z,20.19
2017-03-29T18:44:21.442Z,20.1
2017-03-29T18:46:45.551Z,20.21
2017-03-29T18:49:09.459Z,20.19
2017-03-29T18:51:33.917Z,20.19
2017-03-29T18:53:58.281Z,20.12
2017-03-29T18:56:22.251Z,20.17
2017-03-29T18:58:46.331Z,20.03
2017-03-29T19:01:10.489Z,19.81
2017-03-29T19:03:35.820Z,19.89
2017-03-29T19:06:00.801Z,19.89
2017-03-29T19:08:24.719Z,19.93
2017-03-29T19:10:48.880Z,19.72
2017-03-29T19:13:12.846Z,19.81
2017-03-29T19:15:36.795Z,19.89
2017-03-29T19:18:02.058Z,19.94
2017-03-29T19:20:25.638Z,19.9
2017-03-29T19:22:49.824Z,19.75
2017-03-29T19:25:13.691Z,19.82
2017-03-29T19:27:37.563Z,19.74
2017-03-29T19:30:01.540Z,19.63
2017-03-29T19:32:25.589Z,19.63
2017-03-29T19:34:49.425Z,19.64
2017-03-29T19:37:13.405Z,19.71
2017-03-29T19:39:37.386Z,19.55
2017-03-29T19:42:01.407Z,19.48
2017-03-29T19:44:25.232Z,19.44
2017-03-29T19:46:49.108Z,19.32
2017-03-29T19:49:13.003Z,19.42
2017-03-29T19:51:36.910Z,19.34
2017-03-29T19:53:38.652Z,19.3
2017-03-29T19:56:02.590Z,19.22
2017-03-29T19:58:26.572Z,19.22
2017-03-29T20:00:50.448Z,19.19
2017-03-29T20:03:06.238Z,19.16
2017-03-29T20:05:30.110Z,19.19
2017-03-29T20:07:54.319Z,19.01
2017-03-29T20:10:18.648Z,18.94
2017-03-29T20:12:43.737Z,19.12
2017-03-29T20:15:07.572Z,18.92
2017-03-29T20:17:31.754Z,18.98
2017-03-29T20:19:55.903Z,18.97
2017-03-29T20:22:19.665Z,18.94
2017-03-29T20:24:30.014Z,18.96
2017-03-29T20:26:45.424Z,18.96
2017-03-29T20:29:11.248Z,18.92
2017-03-29T20:31:35.128Z,18.82
2017-03-29T20:33:58.937Z,18.86
2017-03-29T20:36:00.205Z,18.86
2017-03-29T20:38:24.126Z,18.82
2017-03-29T20:40:39.483Z,18.78
2017-03-29T20:43:03.302Z,18.7
2017-03-29T20:45:27.175Z,18.76
2017-03-29T20:47:51.056Z,18.92
2017-03-29T20:50:15.854Z,18.79
2017-03-29T20:52:40.756Z,18.81
2017-03-29T20:55:04.527Z,18.68
2017-03-29T20:57:29.330Z,18.76
2017-03-29T20:59:53.253Z,18.68
2017-03-29T21:02:18.040Z,18.68
2017-03-29T21:04:42.907Z,18.67
2017-03-29T21:07:06.660Z,18.66
2017-03-29T21:09:30.557Z,18.52
2017-03-29T21:11:54.357Z,18.43
2017-03-29T21:14:18.131Z,18.57
2017-03-29T21:16:48.654Z,18.58
2017-03-29T21:19:13.542Z,18.43
2017-03-29T21:21:37.417Z,18.45
2017-03-29T21:24:02.220Z,18.48
2017-03-29T21:26:25.960Z,18.51
2017-03-29T21:28:49.678Z,18.48
2017-03-29T21:31:15.484Z,18.45
2017-03-29T21:33:39.268Z,18.52
2017-03-29T21:36:03.028Z,18.52
2017-03-29T21:38:26.821Z,18.58
2017-03-29T21:40:51.619Z,18.52
2017-03-29T21:43:15.371Z,18.55
2017-03-29T21:45:39.098Z,18.55
2017-03-29T21:48:03.962Z,18.6
2017-03-29T21:50:27.838Z,18.74
2017-03-29T21:52:51.716Z,18.68
2017-03-29T21:55:15.488Z,18.64
2017-03-29T21:57:40.292Z,18.74
2017-03-29T22:00:04.169Z,18.73
2017-03-29T22:02:28.039Z,18.7
2017-03-29T22:04:51.919Z,18.81
2017-03-29T22:07:16.718Z,18.73
2017-03-29T22:09:27.042Z,18.81
2017-03-29T22:11:50.956Z,18.68
2017-03-29T22:14:14.849Z,18.42
2017-03-29T22:16:32.238Z,18.41
2017-03-29T22:19:03.067Z,18.48
2017-03-29T22:21:26.883Z,18.24
2017-03-29T22:23:50.821Z,18.42
2017-03-29T22:26:14.642Z,18.57
2017-03-29T22:28:39.465Z,18.45
2017-03-29T22:31:04.252Z,18.52
2017-03-29T22:33:28.061Z,18.36
2017-03-29T22:35:52.921Z,17.9
2017-03-29T22:38:16.694Z,17.57
2017-03-29T22:40:41.509Z,17.5
2017-03-29T22:43:05.276Z,17.47
2017-03-29T22:45:29.047Z,17.68
2017-03-29T22:47:52.809Z,17.54
2017-03-29T22:50:08.182Z,17.57
2017-03-29T22:52:31.947Z,17.72
2017-03-29T22:54:55.729Z,17.69
2017-03-29T22:57:20.527Z,17.63
2017-03-29T22:59:44.300Z,17.63
2017-03-29T23:01:46.154Z,17.49
2017-03-29T23:04:09.955Z,17.68
2017-03-29T23:06:33.716Z,17.72
2017-03-29T23:08:58.507Z,17.79
2017-03-29T23:11:22.464Z,17.75
2017-03-29T23:13:46.309Z,17.73
2017-03-29T23:15:48.053Z,17.73
2017-03-29T23:18:03.396Z,17.73
2017-03-29T23:20:29.219Z,17.9
2017-03-29T23:22:55.041Z,17.84
2017-03-29T23:25:18.822Z,17.79
2017-03-29T23:27:42.592Z,17.87
2017-03-29T23:30:06.367Z,17.79
2017-03-29T23:32:30.148Z,17.69
2017-03-29T23:35:10.414Z,17.78
2017-03-29T23:37:34.177Z,17.75
2017-03-29T23:39:57.984Z,17.78
2017-03-29T23:42:28.395Z,17.8
2017-03-29T23:44:52.152Z,17.76
2017-03-29T23:47:01.883Z,17.8
2017-03-29T23:49:25.677Z,17.73
2017-03-29T23:51:41.058Z,17.54
2017-03-29T23:53:58.275Z,17.57
2017-03-29T23:56:13.541Z,17.56
2017-03-29T23:58:28.827Z,17.39
